createdAt,value
2023-01-02T00:00:58.386Z,43.83
2023-01-02T00:03:25.424Z,38.90
2023-01-02T00:05:52.236Z,39.95
2023-01-02T00:08:18.957Z,44.88
2023-01-02T00:10:45.665Z,39.60
2023-01-02T00:13:12.389Z,36.40
2023-01-02T00:15:39.205Z,41.33
2023-01-02T00:18:06.028Z,43.08
2023-01-02T00:20:33.551Z,37.63
2023-01-02T00:23:00.409Z,45.22
2023-01-02T00:25:27.171Z,48.28
2023-01-02T00:27:54.826Z,58.05
2023-01-02T00:30:21.536Z,51.38
2023-01-02T00:32:48.249Z,50.78
2023-01-02T00:35:15.067Z,50.72
2023-01-02T00:37:41.768Z,48.42
2023-01-02T00:40:13.750Z,46.67
2023-01-02T00:42:43.572Z,46.85
2023-01-02T00:45:10.719Z,63.25
2023-01-02T00:47:37.515Z,51.05
2023-01-02T00:50:04.796Z,39.67
2023-01-02T00:52:31.506Z,50.63
2023-01-02T00:54:58.324Z,45.15
2023-01-02T00:57:25.061Z,44.25
2023-01-02T00:59:51.872Z,45.60
2023-01-02T01:02:18.744Z,47.05
2023-01-02T01:04:45.617Z,40.88
2023-01-02T01:07:12.387Z,43.35
2023-01-02T01:09:39.139Z,43.17
2023-01-02T01:12:05.886Z,40.53
2023-01-02T01:14:32.634Z,66.65
2023-01-02T01:16:59.948Z,47.33
2023-01-02T01:19:33.572Z,43.70
2023-01-02T01:22:00.459Z,49.55
2023-01-02T01:24:27.317Z,40.30
2023-01-02T01:26:54.045Z,39.92
2023-01-02T01:29:20.916Z,39.60
2023-01-02T01:31:47.682Z,51.47
2023-01-02T01:34:14.941Z,36.97
2023-01-02T01:36:41.710Z,40.47
2023-01-02T01:39:08.468Z,51.80
2023-01-02T01:41:35.192Z,41.58
2023-01-02T01:44:03.150Z,41.05
2023-01-02T01:46:32.704Z,35.13
2023-01-02T01:49:18.295Z,42.75
2023-01-02T01:51:53.104Z,40.03
2023-01-02T01:54:30.206Z,40.47
2023-01-02T01:56:59.171Z,52.55
2023-01-02T01:59:25.906Z,39.30
2023-01-02T02:01:52.863Z,53.97
2023-01-02T02:04:20.381Z,41.70
2023-01-02T02:06:47.441Z,40.45
2023-01-02T02:09:16.717Z,47.28
2023-01-02T02:11:43.569Z,39.83
2023-01-02T02:14:10.299Z,46.38
2023-01-02T02:16:42.186Z,37.72
2023-01-02T02:19:27.373Z,44.08
2023-01-02T02:22:17.563Z,44.08
2023-01-02T02:24:56.622Z,52.15
2023-01-02T02:27:46.155Z,62.33
2023-01-02T02:30:23.548Z,58.45
2023-01-02T02:33:35.491Z,44.40
2023-01-02T02:36:24.279Z,45.30
2023-01-02T02:39:13.007Z,40.65
2023-01-02T02:41:53.168Z,59.15
2023-01-02T02:44:45.471Z,65.38
2023-01-02T02:47:16.561Z,37.67
2023-01-02T02:49:58.749Z,52.95
2023-01-02T02:52:58.127Z,57.20
2023-01-02T02:55:28.495Z,55.53
2023-01-02T02:57:55.246Z,41.35
2023-01-02T03:00:23.608Z,52.67
2023-01-02T03:02:50.509Z,55.42
2023-01-02T03:05:21.747Z,59.88
2023-01-02T03:07:55.597Z,46.17
2023-01-02T03:10:50.280Z,74.80
2023-01-02T03:13:47.782Z,51.95
2023-01-02T03:16:24.174Z,43.95
2023-01-02T03:18:55.423Z,41.13
2023-01-02T03:21:31.499Z,47.30
2023-01-02T03:24:00.843Z,62.42
2023-01-02T03:26:28.992Z,51.28
2023-01-02T03:28:58.175Z,59.17
2023-01-02T03:31:25.473Z,47.65
2023-01-02T03:34:16.938Z,60.35
2023-01-02T03:36:45.229Z,47.33
2023-01-02T03:39:16.085Z,65.93
2023-01-02T03:41:53.564Z,35.47
2023-01-02T03:44:21.679Z,53.28
2023-01-02T03:46:58.270Z,48.90
2023-01-02T03:49:33.131Z,50.53
2023-01-02T03:51:59.913Z,54.88
2023-01-02T03:54:26.964Z,68.40
2023-01-02T03:57:10.249Z,56.20
2023-01-02T04:02:35.669Z,46.38
2023-01-02T04:05:10.740Z,49.35
2023-01-02T04:07:39.548Z,56.33
2023-01-02T04:10:07.214Z,58.35
2023-01-02T04:12:35.920Z,53.35
2023-01-02T04:15:05.783Z,48.53
2023-01-02T04:17:35.727Z,47.35
2023-01-02T04:20:03.758Z,39.53
2023-01-02T04:22:32.721Z,57.58
2023-01-02T04:25:13.681Z,76.43
2023-01-02T04:27:48.936Z,60.33
2023-01-02T04:30:15.794Z,80.03
2023-01-02T04:32:43.394Z,62.28
2023-01-02T04:35:14.517Z,61.65
2023-01-02T04:37:42.161Z,61.75
2023-01-02T04:40:23.649Z,53.72
2023-01-02T04:42:50.420Z,65.03
2023-01-02T04:45:17.311Z,59.78
2023-01-02T04:47:44.296Z,57.47
2023-01-02T04:50:11.252Z,50.22
2023-01-02T04:52:38.052Z,60.13
2023-01-02T04:55:08.313Z,39.55
2023-01-02T04:57:35.476Z,44.10
2023-01-02T05:00:02.744Z,42.80
2023-01-02T05:02:29.618Z,57.95
2023-01-02T05:04:56.431Z,80.43
2023-01-02T05:07:23.174Z,79.97
2023-01-02T05:09:49.956Z,73.93
2023-01-02T05:12:16.837Z,71.65
2023-01-02T05:14:43.643Z,67.18
2023-01-02T05:17:10.357Z,70.07
2023-01-02T05:19:37.094Z,52.92
2023-01-02T05:22:22.264Z,56.08
2023-01-02T05:24:49.030Z,57.40
2023-01-02T05:27:15.812Z,43.95
2023-01-02T05:29:42.572Z,53.63
2023-01-02T05:32:09.299Z,47.97
2023-01-02T05:34:36.033Z,47.95
2023-01-02T05:37:02.759Z,44.03
2023-01-02T05:39:29.469Z,77.10
2023-01-02T05:41:56.227Z,65.93
2023-01-02T05:44:22.955Z,50.88
2023-01-02T05:46:49.762Z,37.00
2023-01-02T05:49:16.584Z,41.63
2023-01-02T05:51:43.403Z,46.00
2023-01-02T05:54:10.089Z,53.92
2023-01-02T05:56:36.819Z,49.38
2023-01-02T05:59:07.045Z,47.97
2023-01-02T06:01:33.861Z,36.50
2023-01-02T06:04:00.847Z,42.22
2023-01-02T06:06:38.548Z,47.83
2023-01-02T06:09:05.496Z,37.35
2023-01-02T06:11:32.380Z,42.45
2023-01-02T06:13:59.339Z,51.92
2023-01-02T06:16:26.203Z,50.33
2023-01-02T06:18:52.977Z,45.42
2023-01-02T06:21:21.035Z,48.55
2023-01-02T06:23:48.101Z,41.80
2023-01-02T06:26:16.659Z,49.72
2023-01-02T06:28:43.656Z,38.63
2023-01-02T06:31:12.607Z,48.85
2023-01-02T06:33:39.753Z,47.33
2023-01-02T06:36:10.234Z,35.63
2023-01-02T06:38:37.347Z,43.70
2023-01-02T06:41:04.660Z,44.78
2023-01-02T06:43:31.535Z,43.25
2023-01-02T06:45:59.392Z,37.88
2023-01-02T06:48:26.394Z,51.53
2023-01-02T06:50:53.242Z,50.35
2023-01-02T06:53:20.165Z,42.47
2023-01-02T06:55:57.276Z,40.80
2023-01-02T06:58:24.637Z,50.03
2023-01-02T07:00:51.513Z,49.03
2023-01-02T07:03:18.417Z,45.22
2023-01-02T07:05:45.397Z,43.38
2023-01-02T07:08:12.425Z,39.65
2023-01-02T07:10:39.178Z,36.35
2023-01-02T07:13:05.918Z,51.63
2023-01-02T07:15:33.530Z,45.17
2023-01-02T07:18:00.324Z,41.30
2023-01-02T07:20:27.062Z,48.80
2023-01-02T07:22:54.115Z,44.38
2023-01-02T07:25:21.473Z,41.22
2023-01-02T07:27:48.256Z,43.33
2023-01-02T07:30:15.140Z,51.38
2023-01-02T07:32:43.376Z,31.52
2023-01-02T07:35:11.889Z,31.90
2023-01-02T07:37:38.751Z,42.65
2023-01-02T07:40:06.040Z,45.08
2023-01-02T07:42:32.849Z,38.17
2023-01-02T07:45:02.735Z,40.10
2023-01-02T07:47:29.564Z,40.25
2023-01-02T07:49:56.549Z,44.08
2023-01-02T07:52:23.443Z,40.38
2023-01-02T07:54:50.539Z,37.60
2023-01-02T07:57:17.407Z,36.80
2023-01-02T07:59:47.105Z,36.80
2023-01-02T08:02:14.135Z,38.15
2023-01-02T08:04:40.960Z,47.85
2023-01-02T08:07:07.706Z,47.85
2023-01-02T08:09:34.474Z,49.60
2023-01-02T08:12:01.215Z,32.60
2023-01-02T08:14:27.962Z,32.65
2023-01-02T08:16:54.799Z,38.40
2023-01-02T08:19:21.579Z,38.42
2023-01-02T08:21:48.291Z,30.50
2023-01-02T08:24:15.334Z,44.17
2023-01-02T08:26:42.105Z,44.35
2023-01-02T08:29:09.268Z,34.70
2023-01-02T08:31:41.774Z,37.70
2023-01-02T08:34:14.554Z,30.15
2023-01-02T08:36:41.984Z,41.17
2023-01-02T08:39:08.742Z,30.42
2023-01-02T08:41:37.442Z,26.73
2023-01-02T08:44:04.572Z,31.73
2023-01-02T08:46:36.856Z,31.65
2023-01-02T08:49:07.027Z,33.42
2023-01-02T08:51:33.782Z,37.92
2023-01-02T08:54:00.542Z,36.55
2023-01-02T08:56:31.189Z,31.63
2023-01-02T08:59:18.258Z,36.08
2023-01-02T09:01:45.074Z,37.67
2023-01-02T09:04:13.281Z,52.88
2023-01-02T09:06:40.674Z,41.50
2023-01-02T09:09:11.952Z,37.33
2023-01-02T09:11:42.479Z,29.17
2023-01-02T09:14:09.271Z,38.70
2023-01-02T09:16:36.011Z,39.22
2023-01-02T09:19:02.930Z,38.17
2023-01-02T09:21:29.822Z,37.25
2023-01-02T09:23:56.719Z,36.17
2023-01-02T09:26:23.455Z,33.20
2023-01-02T09:28:50.217Z,33.03
2023-01-02T09:31:17.347Z,35.33
2023-01-02T09:33:44.881Z,37.83
2023-01-02T09:36:12.831Z,31.90
2023-01-02T09:38:39.631Z,37.28
2023-01-02T09:41:22.018Z,36.08
2023-01-02T09:44:20.748Z,35.30
2023-01-02T09:47:06.329Z,37.38
2023-01-02T09:49:38.366Z,35.53
2023-01-02T09:52:07.371Z,35.65
2023-01-02T09:54:34.368Z,38.35
2023-01-02T09:57:13.281Z,34.38
2023-01-02T09:59:52.729Z,35.75
2023-01-02T10:02:56.747Z,35.83
2023-01-02T10:05:45.185Z,32.28
2023-01-02T10:08:13.727Z,31.65
2023-01-02T10:10:42.793Z,30.77
2023-01-02T10:14:08.298Z,28.77
2023-01-02T10:16:20.014Z,31.30
2023-01-02T10:18:49.281Z,32.08
2023-01-02T10:21:21.407Z,26.65
2023-01-02T10:24:03.903Z,30.15
2023-01-02T10:26:37.474Z,32.55
2023-01-02T10:29:32.463Z,30.92
2023-01-02T10:32:21.284Z,26.25
2023-01-02T10:35:02.339Z,28.27
2023-01-02T10:37:29.071Z,28.38
2023-01-02T10:39:55.841Z,25.58
2023-01-02T10:42:22.944Z,25.15
2023-01-02T10:44:49.728Z,31.40
2023-01-02T10:47:20.391Z,25.55
2023-01-02T10:49:47.758Z,33.85
2023-01-02T10:52:25.398Z,30.80
2023-01-02T10:54:59.767Z,27.23
2023-01-02T10:57:36.895Z,27.60
2023-01-02T11:00:05.822Z,31.42
2023-01-02T11:02:40.269Z,30.08
2023-01-02T11:05:08.743Z,27.90
2023-01-02T11:07:37.016Z,33.47
2023-01-02T11:10:05.033Z,28.10
2023-01-02T11:12:32.973Z,25.33
2023-01-02T11:15:13.032Z,32.78
2023-01-02T11:17:41.560Z,33.85
2023-01-02T11:20:27.587Z,34.97
2023-01-02T11:22:55.982Z,29.45
2023-01-02T11:25:27.320Z,25.05
2023-01-02T11:27:57.432Z,27.67
2023-01-02T11:30:36.975Z,26.60
2023-01-02T11:33:07.851Z,28.10
2023-01-02T11:35:38.489Z,25.40
2023-01-02T11:38:05.524Z,23.90
2023-01-02T11:40:32.564Z,23.75
2023-01-02T11:43:21.909Z,24.95
2023-01-02T11:45:48.637Z,25.38
2023-01-02T11:48:18.090Z,26.60
2023-01-02T11:50:45.121Z,23.70
2023-01-02T11:53:11.895Z,25.38
2023-01-02T11:55:42.656Z,24.55
2023-01-02T11:58:24.731Z,26.90
2023-01-02T12:00:53.543Z,29.77
2023-01-02T12:03:25.352Z,27.25
2023-01-02T12:06:17.164Z,27.20
2023-01-02T12:09:03.964Z,27.98
2023-01-02T12:11:43.024Z,28.23
2023-01-02T12:14:39.621Z,29.55
2023-01-02T12:17:13.341Z,26.83
2023-01-02T12:20:05.743Z,23.45
2023-01-02T12:22:54.219Z,30.47
2023-01-02T12:25:55.993Z,27.95
2023-01-02T12:28:52.896Z,38.00
2023-01-02T12:31:28.446Z,30.27
2023-01-02T12:34:20.097Z,28.27
2023-01-02T12:36:57.608Z,28.20
2023-01-02T12:39:40.761Z,29.10
2023-01-02T12:42:45.357Z,31.13
2023-01-02T12:45:21.888Z,28.23
2023-01-02T12:48:00.607Z,29.42
2023-01-02T12:51:04.433Z,29.40
2023-01-02T12:56:43.868Z,25.48
2023-01-02T12:59:30.737Z,29.98
2023-01-02T13:02:10.215Z,31.50
2023-01-02T13:04:40.449Z,25.52
2023-01-02T13:07:25.945Z,32.45
2023-01-02T13:09:52.717Z,35.25
2023-01-02T13:12:21.053Z,25.48
2023-01-02T13:14:52.676Z,27.42
2023-01-02T13:17:46.906Z,33.92
2023-01-02T13:20:30.944Z,30.30
2023-01-02T13:23:07.665Z,32.20
2023-01-02T13:25:34.433Z,38.30
2023-01-02T13:28:05.790Z,41.92
2023-01-02T13:30:43.037Z,36.78
2023-01-02T13:33:35.760Z,38.35
2023-01-02T13:36:17.235Z,34.53
2023-01-02T13:38:45.647Z,34.22
2023-01-02T13:41:16.809Z,28.45
2023-01-02T13:43:49.919Z,36.30
2023-01-02T13:49:07.606Z,32.03
2023-01-02T13:51:35.701Z,31.15
2023-01-02T13:54:12.212Z,31.25
2023-01-02T13:57:25.225Z,32.47
2023-01-02T14:00:21.680Z,31.15
2023-01-02T14:03:22.948Z,29.20
2023-01-02T14:06:01.548Z,34.50
2023-01-02T14:08:35.809Z,31.83
2023-01-02T14:11:10.839Z,32.75
2023-01-02T14:13:42.369Z,30.30
2023-01-02T14:16:30.423Z,34.92
2023-01-02T14:19:12.973Z,28.05
2023-01-02T14:21:59.387Z,34.10
2023-01-02T14:24:44.923Z,32.58
2023-01-02T14:27:32.036Z,28.42
2023-01-02T14:30:06.704Z,30.40
2023-01-02T14:32:43.198Z,28.88
2023-01-02T14:35:16.114Z,27.02
2023-01-02T14:37:43.691Z,24.92
2023-01-02T14:40:30.694Z,31.55
2023-01-02T14:43:23.580Z,29.33
2023-01-02T14:45:55.451Z,27.55
2023-01-02T14:48:30.710Z,27.08
2023-01-02T14:50:59.912Z,23.58
2023-01-02T14:53:30.379Z,25.77
2023-01-02T14:56:01.584Z,32.85
2023-01-02T14:58:57.394Z,24.50
2023-01-02T15:01:43.961Z,23.40
2023-01-02T15:04:39.046Z,26.35
2023-01-02T15:07:30.580Z,26.70
2023-01-02T15:10:01.055Z,21.98
2023-01-02T15:12:47.262Z,29.45
2023-01-02T15:15:23.961Z,29.45
2023-01-02T15:17:50.832Z,26.75
2023-01-02T15:20:21.844Z,25.67
2023-01-02T15:22:48.673Z,24.02
2023-01-02T15:25:29.277Z,26.75
2023-01-02T15:27:57.210Z,27.63
2023-01-02T15:30:34.550Z,26.50
2023-01-02T15:33:01.307Z,22.10
2023-01-02T15:35:29.888Z,25.95
2023-01-02T15:37:56.692Z,28.20
2023-01-02T15:40:23.412Z,29.85
2023-01-02T15:43:09.040Z,24.33
2023-01-02T15:45:35.774Z,23.70
2023-01-02T15:48:02.499Z,28.85
2023-01-02T15:50:29.736Z,25.00
2023-01-02T15:53:06.706Z,27.17
2023-01-02T15:55:36.330Z,30.25
2023-01-02T15:58:19.949Z,22.13
2023-01-02T16:00:46.842Z,26.40
2023-01-02T16:04:00.599Z,24.30
2023-01-02T16:06:29.139Z,24.67
2023-01-02T16:08:57.361Z,24.50
2023-01-02T16:11:24.165Z,27.17
2023-01-02T16:14:15.821Z,26.80
2023-01-02T16:16:57.971Z,32.15
2023-01-02T16:19:33.944Z,29.40
2023-01-02T16:22:14.298Z,28.35
2023-01-02T16:25:07.990Z,25.60
2023-01-02T16:27:46.813Z,29.45
2023-01-02T16:30:25.666Z,31.30
2023-01-02T16:32:52.417Z,30.33
2023-01-02T16:35:26.566Z,26.02
2023-01-02T16:37:57.196Z,33.53
2023-01-02T16:41:01.536Z,27.38
2023-01-02T16:43:11.804Z,28.42
2023-01-02T16:45:39.118Z,28.08
2023-01-02T16:48:06.426Z,27.48
2023-01-02T16:50:33.178Z,25.95
2023-01-02T16:53:03.345Z,24.88
2023-01-02T16:55:31.478Z,27.95
2023-01-02T16:57:58.220Z,23.17
2023-01-02T17:00:24.982Z,29.58
2023-01-02T17:02:51.780Z,25.50
2023-01-02T17:05:31.597Z,22.38
2023-01-02T17:07:58.351Z,25.85
2023-01-02T17:10:25.149Z,23.00
2023-01-02T17:12:52.012Z,26.45
2023-01-02T17:15:18.700Z,28.10
2023-01-02T17:17:45.423Z,25.58
2023-01-02T17:20:12.924Z,23.55
2023-01-02T17:22:39.780Z,23.73
2023-01-02T17:25:07.523Z,25.92
2023-01-02T17:27:34.473Z,23.27
2023-01-02T17:30:03.112Z,26.30
2023-01-02T17:32:30.774Z,24.13
2023-01-02T17:34:57.598Z,27.25
2023-01-02T17:37:24.713Z,22.52
2023-01-02T17:39:52.547Z,26.90
2023-01-02T17:42:19.539Z,22.42
2023-01-02T17:44:46.463Z,22.35
2023-01-02T17:50:00.199Z,21.88
2023-01-02T17:52:26.943Z,21.33
2023-01-02T17:54:56.746Z,19.88
2023-01-02T17:57:24.132Z,23.98
2023-01-02T17:59:51.445Z,21.63
2023-01-02T18:02:19.413Z,23.90
2023-01-02T18:04:54.312Z,21.25
2023-01-02T18:07:21.479Z,22.63
2023-01-02T18:10:07.773Z,24.42
2023-01-02T18:12:36.294Z,22.13
2023-01-02T18:15:11.796Z,24.77
2023-01-02T18:17:38.534Z,18.10
2023-01-02T18:20:13.027Z,19.08
2023-01-02T18:22:46.019Z,21.00
2023-01-02T18:25:20.641Z,24.77
2023-01-02T18:27:47.822Z,18.92
2023-01-02T18:30:19.564Z,20.13
2023-01-02T18:32:46.730Z,21.92
2023-01-02T18:35:46.699Z,20.88
2023-01-02T18:38:01.060Z,22.90
2023-01-02T18:40:35.397Z,20.75
2023-01-02T18:43:32.904Z,21.35
2023-01-02T18:46:00.470Z,21.23
2023-01-02T18:48:27.324Z,23.52
2023-01-02T18:50:59.381Z,20.27
2023-01-02T18:53:29.690Z,27.25
2023-01-02T18:56:00.971Z,27.50
2023-01-02T18:58:36.176Z,29.13
2023-01-02T19:01:17.398Z,30.33
2023-01-02T19:03:45.629Z,30.20
2023-01-02T19:06:22.206Z,27.85
2023-01-02T19:08:48.937Z,28.58
2023-01-02T19:11:52.694Z,30.02
2023-01-02T19:14:22.549Z,32.28
2023-01-02T19:17:18.627Z,28.15
2023-01-02T19:19:45.766Z,29.75
2023-01-02T19:22:24.033Z,29.00
2023-01-02T19:24:50.906Z,25.88
2023-01-02T19:27:24.836Z,29.92
2023-01-02T19:29:52.445Z,28.98
2023-01-02T19:32:30.093Z,30.73
2023-01-02T19:35:10.847Z,27.50
2023-01-02T19:37:41.450Z,29.27
2023-01-02T19:40:19.120Z,26.40
2023-01-02T19:42:47.751Z,22.50
2023-01-02T19:45:16.652Z,29.42
2023-01-02T19:47:43.516Z,28.58
2023-01-02T19:50:12.047Z,25.83
2023-01-02T19:52:38.893Z,24.05
2023-01-02T19:55:06.238Z,25.00
2023-01-02T19:57:33.551Z,26.25
2023-01-02T20:00:00.290Z,27.48
2023-01-02T20:02:27.516Z,25.85
2023-01-02T20:04:55.373Z,24.88
2023-01-02T20:07:22.954Z,24.30
2023-01-02T20:09:49.873Z,19.80
2023-01-02T20:12:34.843Z,22.50
2023-01-02T20:15:12.217Z,22.73
2023-01-02T20:17:39.268Z,24.27
2023-01-02T20:20:07.859Z,23.35
2023-01-02T20:22:34.623Z,22.38
2023-01-02T20:25:01.837Z,23.02
2023-01-02T20:27:28.581Z,24.15
2023-01-02T20:29:55.375Z,21.90
2023-01-02T20:32:22.480Z,24.38
2023-01-02T20:34:49.910Z,26.40
2023-01-02T20:37:21.000Z,23.98
2023-01-02T20:39:51.574Z,23.67
2023-01-02T20:42:18.639Z,23.52
2023-01-02T20:44:45.508Z,23.33
2023-01-02T20:47:12.292Z,21.58
2023-01-02T20:49:39.584Z,23.38
2023-01-02T20:52:07.042Z,26.92
2023-01-02T20:54:33.751Z,26.83
2023-01-02T20:57:00.623Z,27.42
2023-01-02T20:59:27.433Z,26.23
2023-01-02T21:01:54.297Z,24.02
2023-01-02T21:04:25.622Z,21.85
2023-01-02T21:06:56.156Z,24.90
2023-01-02T21:09:22.898Z,22.63
2023-01-02T21:11:49.734Z,23.50
2023-01-02T21:14:16.507Z,26.83
2023-01-02T21:16:43.355Z,26.77
2023-01-02T21:19:10.131Z,26.58
2023-01-02T21:21:37.115Z,26.10
2023-01-02T21:24:03.964Z,28.33
2023-01-02T21:26:30.673Z,26.13
2023-01-02T21:28:57.433Z,28.42
2023-01-02T21:31:24.223Z,28.42
2023-01-02T21:33:51.040Z,27.52
2023-01-02T21:36:17.834Z,26.92
2023-01-02T21:38:44.718Z,28.63
2023-01-02T21:41:29.940Z,26.08
2023-01-02T21:43:56.790Z,32.20
2023-01-02T21:46:23.611Z,28.25
2023-01-02T21:48:50.459Z,31.83
2023-01-02T21:51:17.239Z,28.63
2023-01-02T21:53:44.055Z,29.75
2023-01-02T21:56:10.793Z,30.65
2023-01-02T21:58:37.501Z,32.15
2023-01-02T22:01:04.399Z,36.35
2023-01-02T22:03:31.237Z,26.70
2023-01-02T22:05:57.942Z,30.52
2023-01-02T22:08:24.649Z,33.53
2023-01-02T22:10:51.509Z,29.45
2023-01-02T22:13:18.238Z,26.35
2023-01-02T22:15:45.765Z,26.92
2023-01-02T22:18:12.816Z,32.50
2023-01-02T22:20:39.548Z,28.92
2023-01-02T22:23:06.278Z,31.35
2023-01-02T22:25:33.068Z,29.25
2023-01-02T22:27:59.777Z,31.10
2023-01-02T22:30:34.124Z,31.23
2023-01-02T22:33:01.851Z,30.40
2023-01-02T22:35:28.565Z,27.60
2023-01-02T22:37:57.295Z,32.00
2023-01-02T22:40:24.031Z,33.08
2023-01-02T22:43:09.014Z,31.88
2023-01-02T22:45:56.523Z,33.78
2023-01-02T22:48:26.616Z,33.22
2023-01-02T22:50:56.232Z,33.58
2023-01-02T22:53:28.774Z,32.85
2023-01-02T22:55:55.632Z,35.33
2023-01-02T22:58:22.448Z,29.88
2023-01-02T23:01:00.433Z,32.53
2023-01-02T23:03:28.925Z,25.60
2023-01-02T23:05:55.835Z,21.83
2023-01-02T23:08:22.726Z,24.40
2023-01-02T23:10:49.492Z,25.40
2023-01-02T23:13:16.217Z,22.02
2023-01-02T23:16:03.087Z,21.77
2023-01-02T23:18:56.034Z,20.38
2023-01-02T23:23:51.576Z,24.13
2023-01-02T23:26:18.301Z,25.63
2023-01-02T23:31:31.786Z,23.30
2023-01-02T23:33:58.612Z,27.33
2023-01-02T23:36:25.400Z,24.83
2023-01-02T23:38:52.138Z,27.20
2023-01-02T23:41:18.839Z,27.60
2023-01-02T23:43:45.618Z,29.42
2023-01-02T23:46:12.623Z,31.02
2023-01-02T23:48:39.638Z,40.53
2023-01-02T23:51:06.647Z,28.33
2023-01-02T23:53:33.442Z,34.55
2023-01-02T23:56:00.160Z,27.20
2023-01-02T23:58:26.895Z,30.50
